PWSweather.com
Personal Weather Stations
Station Observations

CefaluIT

Lat: 38.0324, Lon: 14.02837

Elevation: 92

Station Type: LACROSSE WS 2350

http://www.meteocefalu.altervista.org

High Low Average
Temperature 64.9°F18.3°C 56.1°F13.4°C 59.5°F15.3°C
Dew Point 49.9°F9.9°C 39.5°F4.2°C 45.8°F7.7°C
Winds 20.0 mph 32.2 kmh Calm Calm 9.0 mph SW14.5 kmh SW
Wind Gusts 20.0 mph32.2 kmh -- 11.0 mph17.7 kmh
Humidity 77% 41% 61%
Pressure 29.72 in1006.4 mb 29.67 in1004.7 mb -
Precipitation 0.14 in3.6 mm - -
Hour Temp Dew Point Humidity Winds Wind Gusts Pressure Precip Precip Rate Daily Precip Total
07:00 AM 56.5°F13.6°C 49.4°F9.7°C 77% 10.0 mph WSW16.1 kmh WSW 10.0 mph16.1 kmh 29.67 in1004.7 mb 0.00 in0.0 mm 0.00 in/hr0.0 mm/hr 0.14 in3.6 mm
07:10 AM 56.5°F13.6°C 49.4°F9.7°C 77% 9.0 mph WNW14.5 kmh WNW 9.0 mph14.5 kmh 29.68 in1005.1 mb 0.00 in0.0 mm 0.00 in/hr0.0 mm/hr 0.14 in3.6 mm
07:20 AM 56.1°F13.4°C 48.3°F9.1°C 75% 16.0 mph WSW25.7 kmh WSW 17.0 mph27.4 kmh 29.68 in1005.1 mb 0.00 in0.0 mm 0.00 in/hr0.0 mm/hr 0.14 in3.6 mm
07:30 AM 56.7°F13.7°C 47.8°F8.8°C 72% 10.0 mph SSW16.1 kmh SSW 20.0 mph32.2 kmh 29.68 in1005.1 mb 0.00 in0.0 mm 0.00 in/hr0.0 mm/hr 0.14 in3.6 mm
07:40 AM 56.8°F13.8°C 47.9°F8.8°C 72% 8.0 mph NW12.9 kmh NW 8.0 mph12.9 kmh 29.68 in1005.1 mb 0.00 in0.0 mm 0.00 in/hr0.0 mm/hr 0.14 in3.6 mm
07:50 AM 56.8°F13.8°C 47.9°F8.8°C 72% 13.0 mph WSW20.9 kmh WSW 14.0 mph22.5 kmh 29.69 in1005.4 mb 0.00 in0.0 mm 0.00 in/hr0.0 mm/hr 0.14 in3.6 mm
08:00 AM 56.8°F13.8°C 48.3°F9.1°C 73% 20.0 mph SSW32.2 kmh SSW 20.0 mph32.2 kmh 29.69 in1005.4 mb 0.00 in0.0 mm 0.00 in/hr0.0 mm/hr 0.14 in3.6 mm
08:10 AM 56.8°F13.8°C 47.2°F8.4°C 70% 17.0 mph SW27.4 kmh SW 17.0 mph27.4 kmh 29.69 in1005.4 mb 0.00 in0.0 mm 0.00 in/hr0.0 mm/hr 0.14 in3.6 mm
08:20 AM 56.8°F13.8°C 47.2°F8.4°C 70% 14.0 mph SW22.5 kmh SW 17.0 mph27.4 kmh 29.69 in1005.4 mb 0.00 in0.0 mm 0.00 in/hr0.0 mm/hr 0.14 in3.6 mm
08:30 AM 56.9°F13.8°C 47.2°F8.4°C 70% 7.0 mph SSW11.3 kmh SSW 7.0 mph11.3 kmh 29.69 in1005.4 mb 0.00 in0.0 mm 0.00 in/hr0.0 mm/hr 0.14 in3.6 mm
08:40 AM 57.4°F14.1°C 46.1°F7.8°C 66% 10.0 mph S16.1 kmh S 12.0 mph19.3 kmh 29.69 in1005.4 mb 0.00 in0.0 mm 0.00 in/hr0.0 mm/hr 0.14 in3.6 mm
08:50 AM 57.6°F14.2°C 45.5°F7.5°C 64% 17.0 mph SW27.4 kmh SW 17.0 mph27.4 kmh 29.70 in1005.8 mb 0.00 in0.0 mm 0.00 in/hr0.0 mm/hr 0.14 in3.6 mm
09:00 AM 57.9°F14.4°C 45.0°F7.2°C 62% 16.0 mph WSW25.7 kmh WSW 17.0 mph27.4 kmh 29.70 in1005.8 mb 0.00 in0.0 mm 0.00 in/hr0.0 mm/hr 0.14 in3.6 mm
09:10 AM 57.9°F14.4°C 45.0°F7.2°C 62% 12.0 mph WSW19.3 kmh WSW 15.0 mph24.1 kmh 29.70 in1005.8 mb 0.00 in0.0 mm 0.00 in/hr0.0 mm/hr 0.14 in3.6 mm
09:20 AM 58.2°F14.6°C 45.2°F7.3°C 62% 9.0 mph WSW14.5 kmh WSW 9.0 mph14.5 kmh 29.70 in1005.8 mb 0.00 in0.0 mm 0.00 in/hr0.0 mm/hr 0.14 in3.6 mm
09:30 AM 58.5°F14.7°C 45.1°F7.3°C 61% 20.0 mph WSW32.2 kmh WSW 20.0 mph32.2 kmh 29.71 in1006.1 mb 0.00 in0.0 mm 0.00 in/hr0.0 mm/hr 0.14 in3.6 mm
09:40 AM 58.6°F14.8°C 45.7°F7.6°C 62% 9.0 mph W14.5 kmh W 9.0 mph14.5 kmh 29.71 in1006.1 mb 0.00 in0.0 mm 0.00 in/hr0.0 mm/hr 0.14 in3.6 mm
09:50 AM 58.8°F14.9°C 45.8°F7.7°C 62% 7.0 mph WNW11.3 kmh WNW 9.0 mph14.5 kmh 29.71 in1006.1 mb 0.00 in0.0 mm 0.00 in/hr0.0 mm/hr 0.14 in3.6 mm
10:00 AM 59.0°F15.0°C 45.6°F7.6°C 61% 12.0 mph WSW19.3 kmh WSW 12.0 mph19.3 kmh 29.71 in1006.1 mb 0.00 in0.0 mm 0.00 in/hr0.0 mm/hr 0.14 in3.6 mm
10:10 AM 58.8°F14.9°C 44.1°F6.7°C 58% 13.0 mph SW20.9 kmh SW 12.0 mph19.3 kmh 29.71 in1006.1 mb 0.00 in0.0 mm 0.00 in/hr0.0 mm/hr 0.14 in3.6 mm
10:20 AM 59.2°F15.1°C 43.9°F6.6°C 57% 12.0 mph WSW19.3 kmh WSW 12.0 mph19.3 kmh 29.72 in1006.4 mb 0.00 in0.0 mm 0.00 in/hr0.0 mm/hr 0.14 in3.6 mm
10:30 AM 59.5°F15.3°C 45.2°F7.3°C 59% 12.0 mph WSW19.3 kmh WSW 12.0 mph19.3 kmh 29.71 in1006.1 mb 0.00 in0.0 mm 0.00 in/hr0.0 mm/hr 0.14 in3.6 mm
10:40 AM 59.7°F15.4°C 44.9°F7.2°C 58% 9.0 mph WSW14.5 kmh WSW 6.0 mph9.7 kmh 29.71 in1006.1 mb 0.00 in0.0 mm 0.00 in/hr0.0 mm/hr 0.14 in3.6 mm
10:50 AM 60.1°F15.6°C 44.8°F7.1°C 57% 6.0 mph NNE9.7 kmh NNE 14.0 mph22.5 kmh 29.72 in1006.4 mb 0.00 in0.0 mm 0.00 in/hr0.0 mm/hr 0.14 in3.6 mm
11:00 AM 60.1°F15.6°C 44.8°F7.1°C 57% 17.0 mph W27.4 kmh W 17.0 mph27.4 kmh 29.71 in1006.1 mb 0.00 in0.0 mm 0.00 in/hr0.0 mm/hr 0.14 in3.6 mm
11:10 AM 59.5°F15.3°C 44.7°F7.1°C 58% 9.0 mph W14.5 kmh W 14.0 mph22.5 kmh 29.71 in1006.1 mb 0.00 in0.0 mm 0.00 in/hr0.0 mm/hr 0.14 in3.6 mm
11:20 AM 59.5°F15.3°C 45.6°F7.6°C 60% 9.0 mph W14.5 kmh W 12.0 mph19.3 kmh 29.71 in1006.1 mb 0.00 in0.0 mm 0.00 in/hr0.0 mm/hr 0.14 in3.6 mm
11:30 AM 59.5°F15.3°C 46.1°F7.8°C 61% 15.0 mph WNW24.1 kmh WNW 16.0 mph25.7 kmh 29.71 in1006.1 mb 0.00 in0.0 mm 0.00 in/hr0.0 mm/hr 0.14 in3.6 mm
11:40 AM 59.5°F15.3°C 46.9°F8.3°C 63% 13.0 mph W20.9 kmh W 12.0 mph19.3 kmh 29.71 in1006.1 mb 0.00 in0.0 mm 0.00 in/hr0.0 mm/hr 0.14 in3.6 mm
11:50 AM 59.3°F15.2°C 46.7°F8.2°C 63% 14.0 mph WSW22.5 kmh WSW 15.0 mph24.1 kmh 29.71 in1006.1 mb 0.00 in0.0 mm 0.00 in/hr0.0 mm/hr 0.14 in3.6 mm
12:00 PM 59.5°F15.3°C 46.9°F8.3°C 63% 12.0 mph SW19.3 kmh SW 12.0 mph19.3 kmh 29.72 in1006.4 mb 0.00 in0.0 mm 0.00 in/hr0.0 mm/hr 0.14 in3.6 mm
12:10 PM 59.4°F15.2°C 47.2°F8.4°C 64% 13.0 mph WSW20.9 kmh WSW 8.0 mph12.9 kmh 29.72 in1006.4 mb 0.00 in0.0 mm 0.00 in/hr0.0 mm/hr 0.14 in3.6 mm
12:20 PM 59.2°F15.1°C 46.2°F7.9°C 62% 13.0 mph WSW20.9 kmh WSW 13.0 mph20.9 kmh 29.72 in1006.4 mb 0.00 in0.0 mm 0.00 in/hr0.0 mm/hr 0.14 in3.6 mm
12:30 PM 59.4°F15.2°C 46.3°F7.9°C 62% 12.0 mph NW19.3 kmh NW 10.0 mph16.1 kmh 29.71 in1006.1 mb 0.00 in0.0 mm 0.00 in/hr0.0 mm/hr 0.14 in3.6 mm
12:40 PM 59.5°F15.3°C 46.1°F7.8°C 61% 10.0 mph WSW16.1 kmh WSW 13.0 mph20.9 kmh 29.71 in1006.1 mb 0.00 in0.0 mm 0.00 in/hr0.0 mm/hr 0.14 in3.6 mm
12:50 PM 59.5°F15.3°C 46.5°F8.1°C 62% 9.0 mph NW14.5 kmh NW 9.0 mph14.5 kmh 29.70 in1005.8 mb 0.00 in0.0 mm 0.00 in/hr0.0 mm/hr 0.14 in3.6 mm
01:00 PM 59.7°F15.4°C 46.2°F7.9°C 61% 13.0 mph W20.9 kmh W 13.0 mph20.9 kmh 29.71 in1006.1 mb 0.00 in0.0 mm 0.00 in/hr0.0 mm/hr 0.14 in3.6 mm
01:10 PM 59.9°F15.5°C 46.0°F7.8°C 60% 8.0 mph W12.9 kmh W 3.0 mph4.8 kmh 29.71 in1006.1 mb 0.00 in0.0 mm 0.00 in/hr0.0 mm/hr 0.14 in3.6 mm
01:20 PM 60.3°F15.7°C 46.8°F8.2°C 61% 9.0 mph WSW14.5 kmh WSW 9.0 mph14.5 kmh 29.71 in1006.1 mb 0.00 in0.0 mm 0.00 in/hr0.0 mm/hr 0.14 in3.6 mm
01:30 PM 60.1°F15.6°C 46.1°F7.8°C 60% 13.0 mph WNW20.9 kmh WNW 13.0 mph20.9 kmh 29.70 in1005.8 mb 0.00 in0.0 mm 0.00 in/hr0.0 mm/hr 0.14 in3.6 mm
01:40 PM 60.4°F15.8°C 46.0°F7.8°C 59% 9.0 mph SW14.5 kmh SW 10.0 mph16.1 kmh 29.70 in1005.8 mb 0.00 in0.0 mm 0.00 in/hr0.0 mm/hr 0.14 in3.6 mm
01:50 PM 60.4°F15.8°C 46.0°F7.8°C 59% 6.0 mph SW9.7 kmh SW 13.0 mph20.9 kmh 29.70 in1005.8 mb 0.00 in0.0 mm 0.00 in/hr0.0 mm/hr 0.14 in3.6 mm
02:00 PM 60.4°F15.8°C 46.9°F8.3°C 61% 6.0 mph WNW9.7 kmh WNW 6.0 mph9.7 kmh 29.70 in1005.8 mb 0.00 in0.0 mm 0.00 in/hr0.0 mm/hr 0.14 in3.6 mm
02:10 PM 60.1°F15.6°C 47.0°F8.3°C 62% 12.0 mph WNW19.3 kmh WNW 15.0 mph24.1 kmh 29.70 in1005.8 mb 0.00 in0.0 mm 0.00 in/hr0.0 mm/hr 0.14 in3.6 mm
02:20 PM 59.7°F15.4°C 47.1°F8.4°C 63% 10.0 mph WNW16.1 kmh WNW 18.0 mph29.0 kmh 29.70 in1005.8 mb 0.00 in0.0 mm 0.00 in/hr0.0 mm/hr 0.14 in3.6 mm
02:30 PM 59.7°F15.4°C 47.1°F8.4°C 63% 12.0 mph WSW19.3 kmh WSW 20.0 mph32.2 kmh 29.70 in1005.8 mb 0.00 in0.0 mm 0.00 in/hr0.0 mm/hr 0.14 in3.6 mm
02:40 PM 59.7°F15.4°C 47.9°F8.8°C 65% 9.0 mph NW14.5 kmh NW 7.0 mph11.3 kmh 29.69 in1005.4 mb 0.00 in0.0 mm 0.00 in/hr0.0 mm/hr 0.14 in3.6 mm
02:50 PM 59.4°F15.2°C 48.0°F8.9°C 66% 9.0 mph W14.5 kmh W 17.0 mph27.4 kmh 29.69 in1005.4 mb 0.00 in0.0 mm 0.00 in/hr0.0 mm/hr 0.14 in3.6 mm
03:00 PM 59.2°F15.1°C 48.6°F9.2°C 68% 5.0 mph ENE8.0 kmh ENE 5.0 mph8.0 kmh 29.70 in1005.8 mb 0.00 in0.0 mm 0.00 in/hr0.0 mm/hr 0.14 in3.6 mm
03:10 PM 59.7°F15.4°C 48.7°F9.3°C 67% 15.0 mph SW24.1 kmh SW 20.0 mph32.2 kmh 29.70 in1005.8 mb 0.00 in0.0 mm 0.00 in/hr0.0 mm/hr 0.14 in3.6 mm
03:20 PM 59.5°F15.3°C 48.6°F9.2°C 67% 13.0 mph WSW20.9 kmh WSW 13.0 mph20.9 kmh 29.69 in1005.4 mb 0.00 in0.0 mm 0.00 in/hr0.0 mm/hr 0.14 in3.6 mm
03:30 PM 59.2°F15.1°C 48.6°F9.2°C 68% 10.0 mph SSW16.1 kmh SSW 10.0 mph16.1 kmh 29.69 in1005.4 mb 0.00 in0.0 mm 0.00 in/hr0.0 mm/hr 0.14 in3.6 mm
03:40 PM 59.5°F15.3°C 49.4°F9.7°C 69% 7.0 mph WSW11.3 kmh WSW 7.0 mph11.3 kmh 29.69 in1005.4 mb 0.00 in0.0 mm 0.00 in/hr0.0 mm/hr 0.14 in3.6 mm
03:50 PM 59.8°F15.4°C 49.6°F9.8°C 69% 10.0 mph SW16.1 kmh SW 10.0 mph16.1 kmh 29.69 in1005.4 mb 0.00 in0.0 mm 0.00 in/hr0.0 mm/hr 0.14 in3.6 mm
04:00 PM 60.1°F15.6°C 49.5°F9.7°C 68% 15.0 mph SW24.1 kmh SW 15.0 mph24.1 kmh 29.69 in1005.4 mb 0.00 in0.0 mm 0.00 in/hr0.0 mm/hr 0.14 in3.6 mm
04:10 PM 59.7°F15.4°C 49.5°F9.7°C 69% 8.0 mph SSW12.9 kmh SSW 8.0 mph12.9 kmh 29.69 in1005.4 mb 0.00 in0.0 mm 0.00 in/hr0.0 mm/hr 0.14 in3.6 mm
04:20 PM 59.8°F15.4°C 49.2°F9.6°C 68% 14.0 mph W22.5 kmh W 16.0 mph25.7 kmh 29.69 in1005.4 mb 0.00 in0.0 mm 0.00 in/hr0.0 mm/hr 0.14 in3.6 mm
04:30 PM 59.9°F15.5°C 49.7°F9.8°C 69% 13.0 mph NW20.9 kmh NW 13.0 mph20.9 kmh 29.69 in1005.4 mb 0.00 in0.0 mm 0.00 in/hr0.0 mm/hr 0.14 in3.6 mm
04:40 PM 60.1°F15.6°C 49.9°F9.9°C 69% 9.0 mph SW14.5 kmh SW 8.0 mph12.9 kmh 29.69 in1005.4 mb 0.00 in0.0 mm 0.00 in/hr0.0 mm/hr 0.14 in3.6 mm
04:50 PM 60.4°F15.8°C 49.8°F9.9°C 68% 6.0 mph W9.7 kmh W 7.0 mph11.3 kmh 29.68 in1005.1 mb 0.00 in0.0 mm 0.00 in/hr0.0 mm/hr 0.14 in3.6 mm
05:00 PM 60.1°F15.6°C 49.5°F9.7°C 68% 12.0 mph WSW19.3 kmh WSW 12.0 mph19.3 kmh 29.68 in1005.1 mb 0.00 in0.0 mm 0.00 in/hr0.0 mm/hr 0.14 in3.6 mm
05:10 PM 59.7°F15.4°C 49.5°F9.7°C 69% 5.0 mph NNW8.0 kmh NNW 3.0 mph4.8 kmh 29.68 in1005.1 mb 0.00 in0.0 mm 0.00 in/hr0.0 mm/hr 0.14 in3.6 mm
05:20 PM 59.7°F15.4°C 49.5°F9.7°C 69% 8.0 mph W12.9 kmh W 12.0 mph19.3 kmh 29.68 in1005.1 mb 0.00 in0.0 mm 0.00 in/hr0.0 mm/hr 0.14 in3.6 mm
05:30 PM 59.5°F15.3°C 49.4°F9.7°C 69% 13.0 mph W20.9 kmh W 13.0 mph20.9 kmh 29.68 in1005.1 mb 0.00 in0.0 mm 0.00 in/hr0.0 mm/hr 0.14 in3.6 mm
05:40 PM 59.5°F15.3°C 49.7°F9.8°C 70% 8.0 mph SSW12.9 kmh SSW 9.0 mph14.5 kmh 29.68 in1005.1 mb 0.00 in0.0 mm 0.00 in/hr0.0 mm/hr 0.14 in3.6 mm
05:50 PM 58.8°F14.9°C 48.7°F9.3°C 69% 7.0 mph WSW11.3 kmh WSW 9.0 mph14.5 kmh 29.68 in1005.1 mb 0.00 in0.0 mm 0.00 in/hr0.0 mm/hr 0.14 in3.6 mm
06:00 PM 58.8°F14.9°C 48.7°F9.3°C 69% 6.0 mph W9.7 kmh W 10.0 mph16.1 kmh 29.68 in1005.1 mb 0.00 in0.0 mm 0.00 in/hr0.0 mm/hr 0.14 in3.6 mm
06:10 PM 58.8°F14.9°C 49.4°F9.7°C 71% 3.0 mph SSW4.8 kmh SSW 3.0 mph4.8 kmh 29.68 in1005.1 mb 0.00 in0.0 mm 0.00 in/hr0.0 mm/hr 0.14 in3.6 mm
06:20 PM 58.6°F14.8°C 49.3°F9.6°C 71% 3.0 mph SW4.8 kmh SW 3.0 mph4.8 kmh 29.69 in1005.4 mb 0.00 in0.0 mm 0.00 in/hr0.0 mm/hr 0.14 in3.6 mm
06:30 PM 58.8°F14.9°C 49.8°F9.9°C 72% 3.0 mph W4.8 kmh W 3.0 mph4.8 kmh 29.68 in1005.1 mb 0.00 in0.0 mm 0.00 in/hr0.0 mm/hr 0.14 in3.6 mm
06:40 PM 58.5°F14.7°C 49.5°F9.7°C 72% 6.0 mph W9.7 kmh W 6.0 mph9.7 kmh 29.69 in1005.4 mb 0.00 in0.0 mm 0.00 in/hr0.0 mm/hr 0.14 in3.6 mm
06:50 PM 57.9°F14.4°C 48.9°F9.4°C 72% 7.0 mph SSW11.3 kmh SSW 7.0 mph11.3 kmh 29.70 in1005.8 mb 0.00 in0.0 mm 0.00 in/hr0.0 mm/hr 0.14 in3.6 mm
07:00 PM 57.6°F14.2°C 47.1°F8.4°C 68% 6.0 mph S9.7 kmh S 6.0 mph9.7 kmh 29.69 in1005.4 mb 0.00 in0.0 mm 0.00 in/hr0.0 mm/hr 0.14 in3.6 mm
07:10 PM 58.6°F14.8°C 44.8°F7.1°C 60% 13.0 mph SSW20.9 kmh SSW 12.0 mph19.3 kmh 29.69 in1005.4 mb 0.00 in0.0 mm 0.00 in/hr0.0 mm/hr 0.14 in3.6 mm
07:20 PM 58.8°F14.9°C 44.5°F6.9°C 59% 7.0 mph S11.3 kmh S 16.0 mph25.7 kmh 29.69 in1005.4 mb 0.00 in0.0 mm 0.00 in/hr0.0 mm/hr 0.14 in3.6 mm
07:30 PM 58.8°F14.9°C 44.5°F6.9°C 59% 6.0 mph SSW9.7 kmh SSW 7.0 mph11.3 kmh 29.70 in1005.8 mb 0.00 in0.0 mm 0.00 in/hr0.0 mm/hr 0.14 in3.6 mm
07:40 PM 58.6°F14.8°C 44.3°F6.8°C 59% 7.0 mph SSW11.3 kmh SSW 7.0 mph11.3 kmh 29.70 in1005.8 mb 0.00 in0.0 mm 0.00 in/hr0.0 mm/hr 0.14 in3.6 mm
07:50 PM 58.7°F14.8°C 43.9°F6.6°C 58% 9.0 mph SW14.5 kmh SW 18.0 mph29.0 kmh 29.70 in1005.8 mb 0.00 in0.0 mm 0.00 in/hr0.0 mm/hr 0.14 in3.6 mm
08:00 PM 59.0°F15.0°C 43.3°F6.3°C 56% 9.0 mph S14.5 kmh S 10.0 mph16.1 kmh 29.70 in1005.8 mb 0.00 in0.0 mm 0.00 in/hr0.0 mm/hr 0.14 in3.6 mm
08:10 PM 59.5°F15.3°C 43.3°F6.3°C 55% 7.0 mph SW11.3 kmh SW 7.0 mph11.3 kmh 29.70 in1005.8 mb 0.00 in0.0 mm 0.00 in/hr0.0 mm/hr 0.14 in3.6 mm
08:20 PM 59.4°F15.2°C 42.7°F5.9°C 54% 8.0 mph S12.9 kmh S 9.0 mph14.5 kmh 29.70 in1005.8 mb 0.00 in0.0 mm 0.00 in/hr0.0 mm/hr 0.14 in3.6 mm
08:30 PM 59.5°F15.3°C 42.4°F5.8°C 53% 2.0 mph SSW3.2 kmh SSW 7.0 mph11.3 kmh 29.70 in1005.8 mb 0.00 in0.0 mm 0.00 in/hr0.0 mm/hr 0.14 in3.6 mm
08:40 PM 60.1°F15.6°C 41.9°F5.5°C 51% 6.0 mph WSW9.7 kmh WSW 5.0 mph8.0 kmh 29.70 in1005.8 mb 0.00 in0.0 mm 0.00 in/hr0.0 mm/hr 0.14 in3.6 mm
08:50 PM 60.6°F15.9°C 40.8°F4.9°C 48% 6.0 mph SSE9.7 kmh SSE 6.0 mph9.7 kmh 29.70 in1005.8 mb 0.00 in0.0 mm 0.00 in/hr0.0 mm/hr 0.14 in3.6 mm
09:00 PM 61.0°F16.1°C 41.1°F5.1°C 48% 3.0 mph WSW4.8 kmh WSW 5.0 mph8.0 kmh 29.70 in1005.8 mb 0.00 in0.0 mm 0.00 in/hr0.0 mm/hr 0.14 in3.6 mm
09:10 PM 60.6°F15.9°C 41.3°F5.2°C 49% Calm Calm -- 29.69 in1005.4 mb 0.00 in0.0 mm 0.00 in/hr0.0 mm/hr 0.14 in3.6 mm
09:20 PM 59.2°F15.1°C 44.0°F6.7°C 57% 3.0 mph NNE4.8 kmh NNE 5.0 mph8.0 kmh 29.70 in1005.8 mb 0.00 in0.0 mm 0.00 in/hr0.0 mm/hr 0.14 in3.6 mm
09:30 PM 58.6°F14.8°C 43.9°F6.6°C 58% 6.0 mph S9.7 kmh S 6.0 mph9.7 kmh 29.70 in1005.8 mb 0.00 in0.0 mm 0.00 in/hr0.0 mm/hr 0.14 in3.6 mm
09:40 PM 60.1°F15.6°C 40.3°F4.6°C 48% 7.0 mph SSW11.3 kmh SSW 7.0 mph11.3 kmh 29.70 in1005.8 mb 0.00 in0.0 mm 0.00 in/hr0.0 mm/hr 0.14 in3.6 mm
09:50 PM 61.0°F16.1°C 39.5°F4.2°C 45% 10.0 mph SSW16.1 kmh SSW 10.0 mph16.1 kmh 29.69 in1005.4 mb 0.00 in0.0 mm 0.00 in/hr0.0 mm/hr 0.14 in3.6 mm
10:00 PM 60.6°F15.9°C 40.3°F4.6°C 47% Calm Calm -- 29.69 in1005.4 mb 0.00 in0.0 mm 0.00 in/hr0.0 mm/hr 0.14 in3.6 mm
10:10 PM 61.0°F16.1°C 40.0°F4.4°C 46% 1.0 mph SSW1.6 kmh SSW 1.0 mph1.6 kmh 29.69 in1005.4 mb 0.00 in0.0 mm 0.00 in/hr0.0 mm/hr 0.14 in3.6 mm
10:20 PM 60.1°F15.6°C 43.4°F6.3°C 54% 5.0 mph E8.0 kmh E 6.0 mph9.7 kmh 29.69 in1005.4 mb 0.00 in0.0 mm 0.00 in/hr0.0 mm/hr 0.14 in3.6 mm
10:30 PM 59.1°F15.1°C 42.0°F5.6°C 53% 3.0 mph NE4.8 kmh NE 5.0 mph8.0 kmh 29.69 in1005.4 mb 0.00 in0.0 mm 0.00 in/hr0.0 mm/hr 0.14 in3.6 mm
10:40 PM 60.6°F15.9°C 40.3°F4.6°C 47% 6.0 mph SSW9.7 kmh SSW 6.0 mph9.7 kmh 29.69 in1005.4 mb 0.00 in0.0 mm 0.00 in/hr0.0 mm/hr 0.14 in3.6 mm
10:50 PM 61.6°F16.4°C 40.6°F4.8°C 46% 8.0 mph SSW12.9 kmh SSW 10.0 mph16.1 kmh 29.69 in1005.4 mb 0.00 in0.0 mm 0.00 in/hr0.0 mm/hr 0.14 in3.6 mm
11:00 PM 63.7°F17.6°C 39.5°F4.2°C 41% 17.0 mph SSW27.4 kmh SSW 17.0 mph27.4 kmh 29.69 in1005.4 mb 0.00 in0.0 mm 0.00 in/hr0.0 mm/hr 0.00 in0.0 mm
11:10 PM 64.0°F17.8°C 39.8°F4.3°C 41% 10.0 mph SSW16.1 kmh SSW 8.0 mph12.9 kmh 29.68 in1005.1 mb 0.00 in0.0 mm 0.00 in/hr0.0 mm/hr 0.00 in0.0 mm
11:20 PM 64.0°F17.8°C 40.5°F4.7°C 42% 9.0 mph SSW14.5 kmh SSW 10.0 mph16.1 kmh 29.68 in1005.1 mb 0.00 in0.0 mm 0.00 in/hr0.0 mm/hr 0.00 in0.0 mm
11:30 PM 64.3°F17.9°C 40.7°F4.8°C 42% 5.0 mph WSW8.0 kmh WSW 13.0 mph20.9 kmh 29.67 in1004.7 mb 0.00 in0.0 mm 0.00 in/hr0.0 mm/hr 0.00 in0.0 mm
11:40 PM 64.8°F18.2°C 41.1°F5.1°C 42% 9.0 mph WNW14.5 kmh WNW 9.0 mph14.5 kmh 29.67 in1004.7 mb 0.00 in0.0 mm 0.00 in/hr0.0 mm/hr 0.00 in0.0 mm
11:50 PM 64.9°F18.3°C 41.3°F5.2°C 42% 10.0 mph S16.1 kmh S 14.0 mph22.5 kmh 29.67 in1004.7 mb 0.00 in0.0 mm 0.00 in/hr0.0 mm/hr 0.00 in0.0 mm